sensor_id;sensor_type;location;lat;lon;timestamp;P1;durP1;ratioP1;P2;durP2;ratioP2
77280;SDS011;66339;47.262;17.144;2023-12-28T00:01:42;8.63;;;4.93;;
77280;SDS011;66339;47.262;17.144;2023-12-28T00:04:15;12.13;;;5.18;;
77280;SDS011;66339;47.262;17.144;2023-12-28T00:06:44;8.32;;;4.95;;
77280;SDS011;66339;47.262;17.144;2023-12-28T00:09:14;7.12;;;4.80;;
77280;SDS011;66339;47.262;17.144;2023-12-28T00:14:18;10.50;;;5.00;;
77280;SDS011;66339;47.262;17.144;2023-12-28T00:16:52;10.15;;;5.45;;
77280;SDS011;66339;47.262;17.144;2023-12-28T00:19:20;8.88;;;4.82;;
77280;SDS011;66339;47.262;17.144;2023-12-28T00:21:50;9.43;;;4.95;;
77280;SDS011;66339;47.262;17.144;2023-12-28T00:24:23;8.70;;;4.78;;
77280;SDS011;66339;47.262;17.144;2023-12-28T00:26:57;8.60;;;4.78;;
77280;SDS011;66339;47.262;17.144;2023-12-28T00:29:28;8.25;;;4.93;;
77280;SDS011;66339;47.262;17.144;2023-12-28T00:31:55;8.38;;;4.95;;
77280;SDS011;66339;47.262;17.144;2023-12-28T00:34:31;9.65;;;4.85;;
77280;SDS011;66339;47.262;17.144;2023-12-28T00:37:01;9.45;;;5.20;;
77280;SDS011;66339;47.262;17.144;2023-12-28T00:39:34;7.68;;;4.70;;
77280;SDS011;66339;47.262;17.144;2023-12-28T00:42:04;9.50;;;4.72;;
77280;SDS011;66339;47.262;17.144;2023-12-28T00:44:37;7.37;;;4.40;;
77280;SDS011;66339;47.262;17.144;2023-12-28T00:47:10;9.98;;;5.10;;
77280;SDS011;66339;47.262;17.144;2023-12-28T00:49:46;7.78;;;4.57;;
77280;SDS011;66339;47.262;17.144;2023-12-28T00:52:15;6.82;;;4.40;;
77280;SDS011;66339;47.262;17.144;2023-12-28T00:54:45;8.65;;;4.75;;
77280;SDS011;66339;47.262;17.144;2023-12-28T00:57:17;7.57;;;4.62;;
77280;SDS011;66339;47.262;17.144;2023-12-28T00:59:51;11.02;;;5.18;;
77280;SDS011;66339;47.262;17.144;2023-12-28T01:02:23;9.52;;;4.57;;
77280;SDS011;66339;47.262;17.144;2023-12-28T01:04:53;9.35;;;4.82;;
77280;SDS011;66339;47.262;17.144;2023-12-28T01:07:26;6.72;;;4.28;;
77280;SDS011;66339;47.262;17.144;2023-12-28T01:09:53;6.78;;;4.62;;
77280;SDS011;66339;47.262;17.144;2023-12-28T01:12:28;7.47;;;5.15;;
77280;SDS011;66339;47.262;17.144;2023-12-28T01:14:55;6.03;;;4.15;;
77280;SDS011;66339;47.262;17.144;2023-12-28T01:17:28;9.07;;;4.70;;
77280;SDS011;66339;47.262;17.144;2023-12-28T01:19:57;9.60;;;5.03;;
77280;SDS011;66339;47.262;17.144;2023-12-28T01:22:28;6.62;;;4.43;;
77280;SDS011;66339;47.262;17.144;2023-12-28T01:24:59;6.40;;;3.97;;
77280;SDS011;66339;47.262;17.144;2023-12-28T01:27:33;7.78;;;4.35;;
77280;SDS011;66339;47.262;17.144;2023-12-28T01:30:03;7.28;;;4.40;;
77280;SDS011;66339;47.262;17.144;2023-12-28T01:32:40;7.68;;;4.62;;
77280;SDS011;66339;47.262;17.144;2023-12-28T01:35:13;7.00;;;4.70;;
77280;SDS011;66339;47.262;17.144;2023-12-28T01:37:41;7.45;;;4.50;;
77280;SDS011;66339;47.262;17.144;2023-12-28T01:40:19;6.87;;;4.10;;
77280;SDS011;66339;47.262;17.144;2023-12-28T01:42:51;7.60;;;4.53;;
77280;SDS011;66339;47.262;17.144;2023-12-28T01:45:24;6.95;;;4.45;;
77280;SDS011;66339;47.262;17.144;2023-12-28T01:47:55;7.10;;;3.90;;
77280;SDS011;66339;47.262;17.144;2023-12-28T01:50:25;8.30;;;4.80;;
77280;SDS011;66339;47.262;17.144;2023-12-28T01:52:54;6.90;;;4.28;;
77280;SDS011;66339;47.262;17.144;2023-12-28T01:55:25;6.12;;;4.22;;
77280;SDS011;66339;47.262;17.144;2023-12-28T01:57:54;6.97;;;4.68;;
77280;SDS011;66339;47.262;17.144;2023-12-28T02:00:26;6.95;;;4.30;;
77280;SDS011;66339;47.262;17.144;2023-12-28T02:02:57;8.50;;;4.55;;
77280;SDS011;66339;47.262;17.144;2023-12-28T02:05:31;6.97;;;4.18;;
77280;SDS011;66339;47.262;17.144;2023-12-28T02:08:05;8.02;;;4.70;;
77280;SDS011;66339;47.262;17.144;2023-12-28T02:10:34;8.57;;;4.53;;
77280;SDS011;66339;47.262;17.144;2023-12-28T02:13:02;6.32;;;4.10;;
77280;SDS011;66339;47.262;17.144;2023-12-28T02:15:32;7.80;;;4.57;;
77280;SDS011;66339;47.262;17.144;2023-12-28T02:18:11;7.85;;;4.25;;
77280;SDS011;66339;47.262;17.144;2023-12-28T02:20:46;7.22;;;3.85;;
77280;SDS011;66339;47.262;17.144;2023-12-28T02:23:25;6.05;;;4.25;;
77280;SDS011;66339;47.262;17.144;2023-12-28T02:25:52;6.03;;;4.12;;
77280;SDS011;66339;47.262;17.144;2023-12-28T02:28:25;6.32;;;4.22;;
77280;SDS011;66339;47.262;17.144;2023-12-28T02:33:32;10.45;;;4.18;;
77280;SDS011;66339;47.262;17.144;2023-12-28T02:36:09;6.20;;;4.43;;
77280;SDS011;66339;47.262;17.144;2023-12-28T02:38:52;7.30;;;4.20;;
77280;SDS011;66339;47.262;17.144;2023-12-28T02:41:27;7.05;;;4.10;;
77280;SDS011;66339;47.262;17.144;2023-12-28T02:43:58;6.10;;;3.97;;
77280;SDS011;66339;47.262;17.144;2023-12-28T02:46:26;7.37;;;4.50;;
77280;SDS011;66339;47.262;17.144;2023-12-28T02:48:58;6.18;;;4.53;;
77280;SDS011;66339;47.262;17.144;2023-12-28T02:51:31;7.32;;;3.72;;
77280;SDS011;66339;47.262;17.144;2023-12-28T02:54:04;5.28;;;3.67;;
77280;SDS011;66339;47.262;17.144;2023-12-28T02:56:39;6.47;;;3.90;;
77280;SDS011;66339;47.262;17.144;2023-12-28T03:01:37;5.25;;;3.60;;
77280;SDS011;66339;47.262;17.144;2023-12-28T03:04:09;6.43;;;3.85;;
77280;SDS011;66339;47.262;17.144;2023-12-28T03:06:39;4.97;;;3.72;;
77280;SDS011;66339;47.262;17.144;2023-12-28T03:09:07;6.72;;;3.58;;
77280;SDS011;66339;47.262;17.144;2023-12-28T03:11:46;6.00;;;4.10;;
77280;SDS011;66339;47.262;17.144;2023-12-28T03:14:13;6.32;;;3.80;;
77280;SDS011;66339;47.262;17.144;2023-12-28T03:16:45;7.68;;;4.00;;
77280;SDS011;66339;47.262;17.144;2023-12-28T03:19:15;6.32;;;3.78;;
77280;SDS011;66339;47.262;17.144;2023-12-28T03:21:48;4.72;;;3.40;;
77280;SDS011;66339;47.262;17.144;2023-12-28T03:24:18;5.47;;;3.75;;
77280;SDS011;66339;47.262;17.144;2023-12-28T03:29:18;6.03;;;3.58;;
77280;SDS011;66339;47.262;17.144;2023-12-28T03:31:48;6.00;;;3.85;;
77280;SDS011;66339;47.262;17.144;2023-12-28T03:34:16;5.75;;;3.97;;
77280;SDS011;66339;47.262;17.144;2023-12-28T03:36:46;7.47;;;3.80;;
77280;SDS011;66339;47.262;17.144;2023-12-28T03:39:16;8.95;;;4.20;;
77280;SDS011;66339;47.262;17.144;2023-12-28T03:41:52;5.05;;;3.67;;
77280;SDS011;66339;47.262;17.144;2023-12-28T03:44:21;7.22;;;3.72;;
77280;SDS011;66339;47.262;17.144;2023-12-28T03:46:55;5.05;;;3.55;;
77280;SDS011;66339;47.262;17.144;2023-12-28T03:49:22;6.05;;;3.65;;
77280;SDS011;66339;47.262;17.144;2023-12-28T03:51:52;7.07;;;3.95;;
77280;SDS011;66339;47.262;17.144;2023-12-28T03:54:25;8.15;;;3.87;;
77280;SDS011;66339;47.262;17.144;2023-12-28T03:56:55;6.95;;;3.83;;
77280;SDS011;66339;47.262;17.144;2023-12-28T03:59:25;5.78;;;3.70;;
77280;SDS011;66339;47.262;17.144;2023-12-28T04:01:55;5.62;;;3.80;;
77280;SDS011;66339;47.262;17.144;2023-12-28T04:04:22;6.65;;;4.30;;
77280;SDS011;66339;47.262;17.144;2023-12-28T04:06:52;5.95;;;3.67;;
77280;SDS011;66339;47.262;17.144;2023-12-28T04:09:26;5.97;;;3.95;;
77280;SDS011;66339;47.262;17.144;2023-12-28T04:11:56;5.97;;;4.18;;
77280;SDS011;66339;47.262;17.144;2023-12-28T04:14:23;6.32;;;3.50;;
77280;SDS011;66339;47.262;17.144;2023-12-28T04:16:53;6.28;;;3.70;;
77280;SDS011;66339;47.262;17.144;2023-12-28T04:19:26;5.37;;;3.72;;
77280;SDS011;66339;47.262;17.144;2023-12-28T04:22:02;4.95;;;3.80;;
77280;SDS011;66339;47.262;17.144;2023-12-28T04:24:31;4.63;;;3.43;;
77280;SDS011;66339;47.262;17.144;2023-12-28T04:27:02;6.35;;;3.65;;
77280;SDS011;66339;47.262;17.144;2023-12-28T04:29:29;4.70;;;3.53;;
77280;SDS011;66339;47.262;17.144;2023-12-28T04:32:02;5.75;;;3.75;;
77280;SDS011;66339;47.262;17.144;2023-12-28T04:34:32;5.90;;;3.65;;
77280;SDS011;66339;47.262;17.144;2023-12-28T04:37:05;4.32;;;3.10;;
77280;SDS011;66339;47.262;17.144;2023-12-28T04:39:38;5.30;;;3.60;;
77280;SDS011;66339;47.262;17.144;2023-12-28T04:42:11;4.80;;;3.55;;
77280;SDS011;66339;47.262;17.144;2023-12-28T04:44:44;5.07;;;3.65;;
77280;SDS011;66339;47.262;17.144;2023-12-28T04:47:15;5.97;;;3.50;;
77280;SDS011;66339;47.262;17.144;2023-12-28T04:49:45;5.35;;;3.45;;
77280;SDS011;66339;47.262;17.144;2023-12-28T04:52:18;6.72;;;3.60;;
77280;SDS011;66339;47.262;17.144;2023-12-28T04:54:48;7.90;;;3.60;;
77280;SDS011;66339;47.262;17.144;2023-12-28T04:57:18;5.53;;;3.35;;
77280;SDS011;66339;47.262;17.144;2023-12-28T04:59:45;4.10;;;3.20;;
77280;SDS011;66339;47.262;17.144;2023-12-28T05:02:15;6.72;;;3.65;;
77280;SDS011;66339;47.262;17.144;2023-12-28T05:04:41;5.70;;;3.50;;
77280;SDS011;66339;47.262;17.144;2023-12-28T05:07:11;4.12;;;3.47;;
77280;SDS011;66339;47.262;17.144;2023-12-28T05:09:44;6.40;;;3.58;;
77280;SDS011;66339;47.262;17.144;2023-12-28T05:12:11;4.53;;;3.40;;
77280;SDS011;66339;47.262;17.144;2023-12-28T05:14:38;6.10;;;3.40;;
77280;SDS011;66339;47.262;17.144;2023-12-28T05:17:08;5.57;;;3.62;;
77280;SDS011;66339;47.262;17.144;2023-12-28T05:19:41;3.87;;;3.15;;
77280;SDS011;66339;47.262;17.144;2023-12-28T05:22:09;5.40;;;3.35;;
77280;SDS011;66339;47.262;17.144;2023-12-28T05:24:35;8.52;;;3.50;;
77280;SDS011;66339;47.262;17.144;2023-12-28T05:27:07;13.05;;;3.80;;
77280;SDS011;66339;47.262;17.144;2023-12-28T05:29:43;7.93;;;3.33;;
77280;SDS011;66339;47.262;17.144;2023-12-28T05:32:10;7.65;;;3.33;;
77280;SDS011;66339;47.262;17.144;2023-12-28T05:34:43;4.45;;;3.40;;
77280;SDS011;66339;47.262;17.144;2023-12-28T05:37:14;8.82;;;3.60;;
77280;SDS011;66339;47.262;17.144;2023-12-28T05:39:43;7.97;;;3.42;;
77280;SDS011;66339;47.262;17.144;2023-12-28T05:42:13;5.40;;;3.60;;
77280;SDS011;66339;47.262;17.144;2023-12-28T05:44:44;23.80;;;4.10;;
77280;SDS011;66339;47.262;17.144;2023-12-28T05:47:11;6.43;;;3.30;;
77280;SDS011;66339;47.262;17.144;2023-12-28T05:49:44;9.50;;;3.12;;
77280;SDS011;66339;47.262;17.144;2023-12-28T05:52:17;10.90;;;3.70;;
77280;SDS011;66339;47.262;17.144;2023-12-28T05:54:45;11.25;;;3.95;;
77280;SDS011;66339;47.262;17.144;2023-12-28T05:57:21;9.07;;;4.03;;
77280;SDS011;66339;47.262;17.144;2023-12-28T05:59:54;12.35;;;3.25;;
77280;SDS011;66339;47.262;17.144;2023-12-28T06:02:23;8.38;;;3.50;;
77280;SDS011;66339;47.262;17.144;2023-12-28T06:04:54;10.27;;;3.58;;
77280;SDS011;66339;47.262;17.144;2023-12-28T06:07:24;18.55;;;3.62;;
77280;SDS011;66339;47.262;17.144;2023-12-28T06:09:58;12.27;;;3.85;;
77280;SDS011;66339;47.262;17.144;2023-12-28T06:12:37;9.35;;;3.40;;
77280;SDS011;66339;47.262;17.144;2023-12-28T06:15:05;19.90;;;6.10;;
77280;SDS011;66339;47.262;17.144;2023-12-28T06:20:10;8.18;;;3.67;;
77280;SDS011;66339;47.262;17.144;2023-12-28T06:22:41;14.13;;;3.67;;
77280;SDS011;66339;47.262;17.144;2023-12-28T06:25:15;17.40;;;4.00;;
77280;SDS011;66339;47.262;17.144;2023-12-28T06:27:48;11.88;;;3.90;;
77280;SDS011;66339;47.262;17.144;2023-12-28T06:30:16;15.50;;;4.00;;
77280;SDS011;66339;47.262;17.144;2023-12-28T06:32:46;12.90;;;3.50;;
77280;SDS011;66339;47.262;17.144;2023-12-28T06:35:13;6.00;;;3.15;;
77280;SDS011;66339;47.262;17.144;2023-12-28T06:37:41;8.52;;;3.72;;
77280;SDS011;66339;47.262;17.144;2023-12-28T06:40:17;8.77;;;3.58;;
77280;SDS011;66339;47.262;17.144;2023-12-28T06:42:50;12.43;;;3.67;;
77280;SDS011;66339;47.262;17.144;2023-12-28T06:45:24;9.93;;;3.75;;
77280;SDS011;66339;47.262;17.144;2023-12-28T06:47:51;9.80;;;4.28;;
77280;SDS011;66339;47.262;17.144;2023-12-28T06:50:22;16.80;;;3.97;;
77280;SDS011;66339;47.262;17.144;2023-12-28T06:52:55;11.30;;;3.87;;
77280;SDS011;66339;47.262;17.144;2023-12-28T06:55:26;17.77;;;3.80;;
77280;SDS011;66339;47.262;17.144;2023-12-28T06:57:53;10.20;;;3.70;;
77280;SDS011;66339;47.262;17.144;2023-12-28T07:00:20;13.60;;;4.00;;
77280;SDS011;66339;47.262;17.144;2023-12-28T07:02:50;19.10;;;4.60;;
77280;SDS011;66339;47.262;17.144;2023-12-28T07:05:18;9.85;;;4.12;;
77280;SDS011;66339;47.262;17.144;2023-12-28T07:07:45;15.55;;;3.92;;
77280;SDS011;66339;47.262;17.144;2023-12-28T07:10:12;13.23;;;4.20;;
77280;SDS011;66339;47.262;17.144;2023-12-28T07:12:42;18.48;;;4.10;;
77280;SDS011;66339;47.262;17.144;2023-12-28T07:15:18;14.43;;;4.28;;
77280;SDS011;66339;47.262;17.144;2023-12-28T07:17:48;25.58;;;4.03;;
77280;SDS011;66339;47.262;17.144;2023-12-28T07:20:19;25.23;;;5.28;;
77280;SDS011;66339;47.262;17.144;2023-12-28T07:22:46;16.62;;;8.35;;
77280;SDS011;66339;47.262;17.144;2023-12-28T07:25:26;20.37;;;10.20;;
77280;SDS011;66339;47.262;17.144;2023-12-28T07:27:58;16.40;;;8.73;;
77280;SDS011;66339;47.262;17.144;2023-12-28T07:30:30;20.17;;;6.07;;
77280;SDS011;66339;47.262;17.144;2023-12-28T07:33:01;21.77;;;5.60;;
77280;SDS011;66339;47.262;17.144;2023-12-28T07:35:31;24.77;;;5.97;;
77280;SDS011;66339;47.262;17.144;2023-12-28T07:37:58;10.90;;;5.25;;
77280;SDS011;66339;47.262;17.144;2023-12-28T07:40:28;22.55;;;4.90;;
77280;SDS011;66339;47.262;17.144;2023-12-28T07:43:02;20.55;;;5.12;;
77280;SDS011;66339;47.262;17.144;2023-12-28T07:45:32;14.77;;;5.47;;
77280;SDS011;66339;47.262;17.144;2023-12-28T07:48:04;32.97;;;6.00;;
77280;SDS011;66339;47.262;17.144;2023-12-28T07:50:32;29.48;;;5.20;;
77280;SDS011;66339;47.262;17.144;2023-12-28T07:53:03;21.17;;;5.72;;
77280;SDS011;66339;47.262;17.144;2023-12-28T07:55:32;17.52;;;5.20;;
77280;SDS011;66339;47.262;17.144;2023-12-28T07:58:05;16.50;;;5.20;;
77280;SDS011;66339;47.262;17.144;2023-12-28T08:00:41;19.75;;;4.97;;
77280;SDS011;66339;47.262;17.144;2023-12-28T08:03:11;22.90;;;5.57;;
77280;SDS011;66339;47.262;17.144;2023-12-28T08:05:42;16.40;;;5.15;;
77280;SDS011;66339;47.262;17.144;2023-12-28T08:08:13;19.75;;;4.93;;
77280;SDS011;66339;47.262;17.144;2023-12-28T08:10:40;15.32;;;5.05;;
77280;SDS011;66339;47.262;17.144;2023-12-28T08:13:07;16.95;;;5.32;;
77280;SDS011;66339;47.262;17.144;2023-12-28T08:15:34;15.80;;;5.55;;
77280;SDS011;66339;47.262;17.144;2023-12-28T08:18:08;13.02;;;4.80;;
77280;SDS011;66339;47.262;17.144;2023-12-28T08:20:34;12.63;;;5.45;;
77280;SDS011;66339;47.262;17.144;2023-12-28T08:23:02;17.90;;;5.47;;
77280;SDS011;66339;47.262;17.144;2023-12-28T08:25:44;21.02;;;5.22;;
77280;SDS011;66339;47.262;17.144;2023-12-28T08:28:11;17.23;;;5.95;;
77280;SDS011;66339;47.262;17.144;2023-12-28T08:30:37;19.30;;;5.40;;
77280;SDS011;66339;47.262;17.144;2023-12-28T08:33:05;11.82;;;5.05;;
77280;SDS011;66339;47.262;17.144;2023-12-28T08:35:32;16.77;;;5.40;;
77280;SDS011;66339;47.262;17.144;2023-12-28T08:37:59;13.93;;;5.55;;
77280;SDS011;66339;47.262;17.144;2023-12-28T08:40:26;17.05;;;5.62;;
77280;SDS011;66339;47.262;17.144;2023-12-28T08:42:59;15.02;;;5.22;;
77280;SDS011;66339;47.262;17.144;2023-12-28T08:45:29;9.93;;;5.07;;
77280;SDS011;66339;47.262;17.144;2023-12-28T08:47:56;15.30;;;4.60;;
77280;SDS011;66339;47.262;17.144;2023-12-28T08:50:24;13.60;;;4.65;;
77280;SDS011;66339;47.262;17.144;2023-12-28T08:52:51;12.93;;;5.00;;
77280;SDS011;66339;47.262;17.144;2023-12-28T08:55:21;21.17;;;5.97;;
77280;SDS011;66339;47.262;17.144;2023-12-28T08:57:51;21.73;;;5.53;;
77280;SDS011;66339;47.262;17.144;2023-12-28T09:00:18;10.38;;;4.70;;
77280;SDS011;66339;47.262;17.144;2023-12-28T09:02:45;10.93;;;5.03;;
77280;SDS011;66339;47.262;17.144;2023-12-28T09:05:12;15.55;;;5.37;;
77280;SDS011;66339;47.262;17.144;2023-12-28T09:07:43;18.77;;;5.20;;
77280;SDS011;66339;47.262;17.144;2023-12-28T09:10:12;19.45;;;5.50;;
77280;SDS011;66339;47.262;17.144;2023-12-28T09:12:42;23.92;;;5.78;;
77280;SDS011;66339;47.262;17.144;2023-12-28T09:15:09;14.57;;;5.50;;
77280;SDS011;66339;47.262;17.144;2023-12-28T09:20:07;13.30;;;9.63;;
77280;SDS011;66339;47.262;17.144;2023-12-28T09:22:36;15.88;;;10.43;;
77280;SDS011;66339;47.262;17.144;2023-12-28T09:25:06;17.50;;;10.73;;
77280;SDS011;66339;47.262;17.144;2023-12-28T09:27:37;13.30;;;10.15;;
77280;SDS011;66339;47.262;17.144;2023-12-28T09:30:04;14.38;;;9.82;;
77280;SDS011;66339;47.262;17.144;2023-12-28T09:32:34;16.00;;;8.50;;
77280;SDS011;66339;47.262;17.144;2023-12-28T09:35:04;10.15;;;6.93;;
77280;SDS011;66339;47.262;17.144;2023-12-28T09:37:35;11.75;;;6.60;;
77280;SDS011;66339;47.262;17.144;2023-12-28T09:40:02;11.57;;;6.30;;
77280;SDS011;66339;47.262;17.144;2023-12-28T09:42:45;14.90;;;6.03;;
77280;SDS011;66339;47.262;17.144;2023-12-28T09:45:21;10.82;;;6.68;;
77280;SDS011;66339;47.262;17.144;2023-12-28T09:47:50;17.70;;;6.18;;
77280;SDS011;66339;47.262;17.144;2023-12-28T09:50:18;10.48;;;5.90;;
77280;SDS011;66339;47.262;17.144;2023-12-28T09:52:45;15.05;;;7.07;;
77280;SDS011;66339;47.262;17.144;2023-12-28T09:55:13;19.75;;;7.37;;
77280;SDS011;66339;47.262;17.144;2023-12-28T09:57:46;30.90;;;7.60;;
77280;SDS011;66339;47.262;17.144;2023-12-28T10:00:17;23.85;;;7.28;;
77280;SDS011;66339;47.262;17.144;2023-12-28T10:02:49;16.40;;;6.35;;
77280;SDS011;66339;47.262;17.144;2023-12-28T10:05:16;13.45;;;6.35;;
77280;SDS011;66339;47.262;17.144;2023-12-28T10:07:47;19.12;;;7.03;;
77280;SDS011;66339;47.262;17.144;2023-12-28T10:10:20;18.87;;;6.55;;
77280;SDS011;66339;47.262;17.144;2023-12-28T10:12:48;15.57;;;5.78;;
77280;SDS011;66339;47.262;17.144;2023-12-28T10:15:15;17.00;;;5.82;;
77280;SDS011;66339;47.262;17.144;2023-12-28T10:17:46;25.62;;;6.97;;
77280;SDS011;66339;47.262;17.144;2023-12-28T10:20:13;16.42;;;6.68;;
77280;SDS011;66339;47.262;17.144;2023-12-28T10:22:43;17.40;;;6.20;;
77280;SDS011;66339;47.262;17.144;2023-12-28T10:25:12;15.02;;;5.65;;
77280;SDS011;66339;47.262;17.144;2023-12-28T10:27:39;18.30;;;6.87;;
77280;SDS011;66339;47.262;17.144;2023-12-28T10:30:12;15.68;;;6.05;;
77280;SDS011;66339;47.262;17.144;2023-12-28T10:32:39;14.30;;;5.00;;
77280;SDS011;66339;47.262;17.144;2023-12-28T10:35:08;15.43;;;6.07;;
77280;SDS011;66339;47.262;17.144;2023-12-28T10:37:35;15.30;;;5.72;;
77280;SDS011;66339;47.262;17.144;2023-12-28T10:40:16;13.95;;;5.57;;
77280;SDS011;66339;47.262;17.144;2023-12-28T10:42:49;20.35;;;5.50;;
77280;SDS011;66339;47.262;17.144;2023-12-28T10:45:31;13.88;;;5.10;;
77280;SDS011;66339;47.262;17.144;2023-12-28T10:50:49;13.57;;;5.25;;
77280;SDS011;66339;47.262;17.144;2023-12-28T10:53:26;12.07;;;5.18;;
77280;SDS011;66339;47.262;17.144;2023-12-28T10:56:25;11.23;;;5.18;;
77280;SDS011;66339;47.262;17.144;2023-12-28T11:01:59;17.15;;;6.10;;
77280;SDS011;66339;47.262;17.144;2023-12-28T11:04:40;17.23;;;6.53;;
77280;SDS011;66339;47.262;17.144;2023-12-28T11:07:13;16.30;;;6.72;;
77280;SDS011;66339;47.262;17.144;2023-12-28T11:09:47;16.87;;;6.78;;
77280;SDS011;66339;47.262;17.144;2023-12-28T11:12:15;17.10;;;7.12;;
77280;SDS011;66339;47.262;17.144;2023-12-28T11:14:49;11.77;;;6.20;;
77280;SDS011;66339;47.262;17.144;2023-12-28T11:17:18;13.02;;;6.35;;
77280;SDS011;66339;47.262;17.144;2023-12-28T11:19:51;13.30;;;7.12;;
77280;SDS011;66339;47.262;17.144;2023-12-28T11:22:23;13.90;;;6.90;;
77280;SDS011;66339;47.262;17.144;2023-12-28T11:24:56;11.68;;;6.95;;
77280;SDS011;66339;47.262;17.144;2023-12-28T11:27:33;17.58;;;7.15;;
77280;SDS011;66339;47.262;17.144;2023-12-28T11:30:04;12.88;;;7.05;;
77280;SDS011;66339;47.262;17.144;2023-12-28T11:32:32;15.00;;;6.55;;
77280;SDS011;66339;47.262;17.144;2023-12-28T11:35:33;12.68;;;5.85;;
77280;SDS011;66339;47.262;17.144;2023-12-28T11:38:16;12.15;;;6.00;;
77280;SDS011;66339;47.262;17.144;2023-12-28T11:40:48;11.77;;;6.30;;
77280;SDS011;66339;47.262;17.144;2023-12-28T11:43:21;11.25;;;6.10;;
77280;SDS011;66339;47.262;17.144;2023-12-28T11:45:57;15.77;;;6.47;;
77280;SDS011;66339;47.262;17.144;2023-12-28T11:48:31;16.73;;;6.87;;
77280;SDS011;66339;47.262;17.144;2023-12-28T11:51:03;12.55;;;7.15;;
77280;SDS011;66339;47.262;17.144;2023-12-28T11:53:34;12.70;;;6.85;;
77280;SDS011;66339;47.262;17.144;2023-12-28T11:56:05;11.63;;;6.80;;
77280;SDS011;66339;47.262;17.144;2023-12-28T11:58:37;13.30;;;6.55;;
77280;SDS011;66339;47.262;17.144;2023-12-28T12:01:09;15.93;;;7.10;;
77280;SDS011;66339;47.262;17.144;2023-12-28T12:03:39;13.15;;;6.40;;
77280;SDS011;66339;47.262;17.144;2023-12-28T12:06:06;14.45;;;7.35;;
77280;SDS011;66339;47.262;17.144;2023-12-28T12:08:36;15.02;;;5.95;;
77280;SDS011;66339;47.262;17.144;2023-12-28T12:11:06;17.30;;;6.62;;
77280;SDS011;66339;47.262;17.144;2023-12-28T12:13:33;16.52;;;6.28;;
77280;SDS011;66339;47.262;17.144;2023-12-28T12:16:04;14.10;;;6.53;;
77280;SDS011;66339;47.262;17.144;2023-12-28T12:18:44;12.90;;;6.30;;
77280;SDS011;66339;47.262;17.144;2023-12-28T12:21:15;12.63;;;6.47;;
77280;SDS011;66339;47.262;17.144;2023-12-28T12:23:49;12.40;;;6.20;;
77280;SDS011;66339;47.262;17.144;2023-12-28T12:26:19;12.98;;;5.95;;
77280;SDS011;66339;47.262;17.144;2023-12-28T12:28:46;15.20;;;5.90;;
77280;SDS011;66339;47.262;17.144;2023-12-28T12:31:20;11.98;;;6.60;;
77280;SDS011;66339;47.262;17.144;2023-12-28T12:34:02;10.13;;;6.07;;
77280;SDS011;66339;47.262;17.144;2023-12-28T12:36:33;12.30;;;6.22;;
77280;SDS011;66339;47.262;17.144;2023-12-28T12:39:03;10.15;;;6.43;;
77280;SDS011;66339;47.262;17.144;2023-12-28T12:41:36;10.88;;;5.90;;
77280;SDS011;66339;47.262;17.144;2023-12-28T12:44:11;11.85;;;6.43;;
77280;SDS011;66339;47.262;17.144;2023-12-28T12:46:42;10.32;;;6.80;;
77280;SDS011;66339;47.262;17.144;2023-12-28T12:49:15;13.25;;;6.50;;
77280;SDS011;66339;47.262;17.144;2023-12-28T12:51:46;16.27;;;6.45;;
77280;SDS011;66339;47.262;17.144;2023-12-28T12:54:20;11.85;;;5.90;;
77280;SDS011;66339;47.262;17.144;2023-12-28T12:56:56;11.45;;;5.93;;
77280;SDS011;66339;47.262;17.144;2023-12-28T12:59:27;10.73;;;5.87;;
77280;SDS011;66339;47.262;17.144;2023-12-28T13:01:55;12.85;;;6.12;;
77280;SDS011;66339;47.262;17.144;2023-12-28T13:04:27;11.15;;;6.10;;
77280;SDS011;66339;47.262;17.144;2023-12-28T13:06:57;15.68;;;6.28;;
77280;SDS011;66339;47.262;17.144;2023-12-28T13:09:31;12.55;;;7.35;;
77280;SDS011;66339;47.262;17.144;2023-12-28T13:12:02;12.93;;;7.00;;
77280;SDS011;66339;47.262;17.144;2023-12-28T13:14:33;10.63;;;6.95;;
77280;SDS011;66339;47.262;17.144;2023-12-28T13:17:00;12.65;;;6.32;;
77280;SDS011;66339;47.262;17.144;2023-12-28T13:19:34;11.57;;;6.40;;
77280;SDS011;66339;47.262;17.144;2023-12-28T13:24:37;13.55;;;6.75;;
77280;SDS011;66339;47.262;17.144;2023-12-28T13:27:07;10.35;;;6.00;;
77280;SDS011;66339;47.262;17.144;2023-12-28T13:29:42;12.63;;;5.82;;
77280;SDS011;66339;47.262;17.144;2023-12-28T13:32:18;9.18;;;5.82;;
77280;SDS011;66339;47.262;17.144;2023-12-28T13:34:50;10.65;;;6.22;;
77280;SDS011;66339;47.262;17.144;2023-12-28T13:37:23;9.70;;;6.15;;
77280;SDS011;66339;47.262;17.144;2023-12-28T13:39:58;9.05;;;6.43;;
77280;SDS011;66339;47.262;17.144;2023-12-28T13:42:33;12.35;;;6.20;;
77280;SDS011;66339;47.262;17.144;2023-12-28T13:45:10;12.00;;;6.32;;
77280;SDS011;66339;47.262;17.144;2023-12-28T13:47:49;10.65;;;5.90;;
77280;SDS011;66339;47.262;17.144;2023-12-28T13:50:19;8.98;;;6.10;;
77280;SDS011;66339;47.262;17.144;2023-12-28T13:52:51;13.68;;;6.75;;
77280;SDS011;66339;47.262;17.144;2023-12-28T13:55:21;9.90;;;6.40;;
77280;SDS011;66339;47.262;17.144;2023-12-28T13:57:49;11.15;;;7.00;;
77280;SDS011;66339;47.262;17.144;2023-12-28T14:00:27;10.82;;;7.22;;
77280;SDS011;66339;47.262;17.144;2023-12-28T14:03:03;9.57;;;6.90;;
77280;SDS011;66339;47.262;17.144;2023-12-28T14:05:34;8.63;;;6.40;;
77280;SDS011;66339;47.262;17.144;2023-12-28T14:08:11;12.68;;;8.05;;
77280;SDS011;66339;47.262;17.144;2023-12-28T14:10:47;12.70;;;8.23;;
77280;SDS011;66339;47.262;17.144;2023-12-28T14:13:20;12.82;;;7.57;;
77280;SDS011;66339;47.262;17.144;2023-12-28T14:15:49;11.73;;;7.90;;
77280;SDS011;66339;47.262;17.144;2023-12-28T14:18:16;13.35;;;8.05;;
77280;SDS011;66339;47.262;17.144;2023-12-28T14:20:53;15.75;;;7.95;;
77280;SDS011;66339;47.262;17.144;2023-12-28T14:23:24;14.10;;;7.72;;
77280;SDS011;66339;47.262;17.144;2023-12-28T14:25:52;14.05;;;8.02;;
77280;SDS011;66339;47.262;17.144;2023-12-28T14:28:23;14.43;;;6.95;;
77280;SDS011;66339;47.262;17.144;2023-12-28T14:30:52;18.17;;;6.75;;
77280;SDS011;66339;47.262;17.144;2023-12-28T14:33:26;8.07;;;6.00;;
77280;SDS011;66339;47.262;17.144;2023-12-28T14:35:59;13.90;;;6.07;;
77280;SDS011;66339;47.262;17.144;2023-12-28T14:38:30;9.57;;;5.85;;
77280;SDS011;66339;47.262;17.144;2023-12-28T14:41:02;10.73;;;5.75;;
77280;SDS011;66339;47.262;17.144;2023-12-28T14:43:32;11.18;;;5.50;;
77280;SDS011;66339;47.262;17.144;2023-12-28T14:46:02;11.77;;;5.37;;
77280;SDS011;66339;47.262;17.144;2023-12-28T14:48:36;8.35;;;6.00;;
77280;SDS011;66339;47.262;17.144;2023-12-28T14:51:10;12.20;;;5.60;;
77280;SDS011;66339;47.262;17.144;2023-12-28T14:53:44;7.87;;;5.25;;
77280;SDS011;66339;47.262;17.144;2023-12-28T14:56:15;11.68;;;5.43;;
77280;SDS011;66339;47.262;17.144;2023-12-28T14:58:42;10.30;;;5.57;;
77280;SDS011;66339;47.262;17.144;2023-12-28T15:01:17;8.48;;;5.22;;
77280;SDS011;66339;47.262;17.144;2023-12-28T15:03:48;10.80;;;5.75;;
77280;SDS011;66339;47.262;17.144;2023-12-28T15:06:34;10.63;;;5.37;;
77280;SDS011;66339;47.262;17.144;2023-12-28T15:09:25;9.88;;;5.50;;
77280;SDS011;66339;47.262;17.144;2023-12-28T15:12:16;11.73;;;5.12;;
77280;SDS011;66339;47.262;17.144;2023-12-28T15:15:09;8.55;;;4.90;;